createdAt,value
2023-10-12T00:00:00.289Z,20.92
2023-10-12T00:02:28.486Z,14.25
2023-10-12T00:05:07.333Z,14.13
2023-10-12T00:07:34.588Z,17.83
2023-10-12T00:10:14.872Z,11.05
2023-10-12T00:12:49.356Z,13.52
2023-10-12T00:15:30.573Z,15.23
2023-10-12T00:18:09.945Z,16.30
2023-10-12T00:20:39.142Z,10.88
2023-10-12T00:23:11.557Z,16.85
2023-10-12T00:25:59.774Z,13.65
2023-10-12T00:28:39.513Z,12.65
2023-10-12T00:31:08.316Z,16.52
2023-10-12T00:33:35.858Z,16.00
2023-10-12T00:36:05.935Z,14.90
2023-10-12T00:38:33.603Z,14.23
2023-10-12T00:41:04.977Z,9.95
2023-10-12T00:43:38.974Z,9.38
2023-10-12T00:46:27.319Z,13.45
2023-10-12T00:49:13.762Z,13.43
2023-10-12T00:51:42.164Z,11.95
2023-10-12T00:54:11.743Z,11.65
2023-10-12T00:56:44.803Z,14.20
2023-10-12T00:59:13.638Z,13.30
2023-10-12T01:01:40.976Z,12.32
2023-10-12T01:04:17.065Z,12.10
2023-10-12T01:06:51.072Z,16.17
2023-10-12T01:09:21.749Z,13.05
2023-10-12T01:11:55.988Z,12.65
2023-10-12T01:14:27.865Z,10.88
2023-10-12T01:16:59.252Z,15.85
2023-10-12T01:19:32.386Z,14.70
2023-10-12T01:22:13.331Z,14.45
2023-10-12T01:24:53.832Z,14.40
2023-10-12T01:27:24.324Z,16.17
2023-10-12T01:29:52.329Z,12.30
2023-10-12T01:32:19.930Z,13.82
2023-10-12T01:35:05.247Z,16.42
2023-10-12T01:37:42.802Z,13.30
2023-10-12T01:40:16.950Z,11.38
2023-10-12T01:42:50.285Z,19.65
2023-10-12T01:45:24.879Z,14.23
2023-10-12T01:47:56.680Z,12.27
2023-10-12T01:50:28.742Z,12.20
2023-10-12T01:53:00.402Z,18.13
2023-10-12T01:55:31.818Z,23.77
2023-10-12T01:58:00.166Z,16.65
2023-10-12T02:00:40.545Z,10.43
2023-10-12T02:03:19.797Z,18.35
2023-10-12T02:06:07.250Z,18.92
2023-10-12T02:08:55.579Z,16.20
2023-10-12T02:11:25.608Z,12.32
2023-10-12T02:13:55.404Z,8.60
2023-10-12T02:16:32.529Z,15.23
2023-10-12T02:19:05.516Z,13.68
2023-10-12T02:21:34.747Z,15.35
2023-10-12T02:24:08.072Z,11.98
2023-10-12T02:26:41.718Z,11.75
2023-10-12T02:29:13.070Z,11.45
2023-10-12T02:31:50.680Z,13.73
2023-10-12T02:34:44.271Z,14.85
2023-10-12T02:37:11.505Z,15.52
2023-10-12T02:39:41.750Z,16.27
2023-10-12T02:42:19.418Z,11.18
2023-10-12T02:44:51.215Z,11.25
2023-10-12T02:47:24.845Z,16.02
2023-10-12T02:49:52.807Z,17.92
2023-10-12T02:52:21.894Z,12.07
2023-10-12T02:54:51.070Z,16.65
2023-10-12T02:57:32.283Z,21.30
2023-10-12T03:00:19.997Z,14.93
2023-10-12T03:02:54.212Z,10.65
2023-10-12T03:05:32.291Z,10.98
2023-10-12T03:08:07.448Z,12.13
2023-10-12T03:10:34.756Z,12.38
2023-10-12T03:13:06.106Z,15.10
2023-10-12T03:15:57.723Z,12.82
2023-10-12T03:18:28.230Z,12.02
2023-10-12T03:21:12.945Z,18.70
2023-10-12T03:23:47.935Z,17.92
2023-10-12T03:26:26.076Z,16.08
2023-10-12T03:28:55.442Z,12.88
2023-10-12T03:31:24.687Z,21.45
2023-10-12T03:33:56.410Z,14.30
2023-10-12T03:36:28.027Z,12.85
2023-10-12T03:39:19.774Z,9.45
2023-10-12T03:41:48.162Z,18.63
2023-10-12T03:44:34.710Z,21.08
2023-10-12T03:47:20.975Z,16.20
2023-10-12T03:49:55.022Z,13.40
2023-10-12T03:52:22.248Z,11.93
2023-10-12T03:54:58.434Z,19.67
2023-10-12T03:57:52.431Z,15.60
2023-10-12T04:00:19.707Z,13.55
2023-10-12T04:02:55.652Z,10.32
2023-10-12T04:05:43.468Z,15.00
2023-10-12T04:08:10.736Z,18.88
2023-10-12T04:10:47.466Z,16.20
2023-10-12T04:13:30.608Z,11.65
2023-10-12T04:16:28.723Z,19.50
2023-10-12T04:18:56.152Z,14.68
2023-10-12T04:21:34.603Z,13.52
2023-10-12T04:24:17.610Z,15.82
2023-10-12T04:27:10.068Z,12.10
2023-10-12T04:29:40.111Z,14.85
2023-10-12T04:32:30.855Z,13.27
2023-10-12T04:34:58.561Z,16.55
2023-10-12T04:37:28.731Z,14.52
2023-10-12T04:39:59.091Z,9.23
2023-10-12T04:42:35.011Z,13.27
2023-10-12T04:45:10.953Z,20.23
2023-10-12T04:47:38.193Z,19.45
2023-10-12T04:50:08.421Z,19.35
2023-10-12T04:52:38.704Z,16.38
2023-10-12T04:55:21.485Z,12.57
2023-10-12T04:57:57.428Z,16.30
2023-10-12T05:00:36.164Z,16.65
2023-10-12T05:03:24.254Z,14.55
2023-10-12T05:06:18.120Z,14.93
2023-10-12T05:08:47.253Z,20.40
2023-10-12T05:11:15.315Z,17.20
2023-10-12T05:13:45.226Z,15.25
2023-10-12T05:16:15.708Z,13.25
2023-10-12T05:18:43.338Z,15.48
2023-10-12T05:21:12.033Z,19.23
2023-10-12T05:23:39.544Z,12.73
2023-10-12T05:26:07.312Z,11.57
2023-10-12T05:28:44.576Z,12.82
2023-10-12T05:31:14.569Z,14.75
2023-10-12T05:34:01.188Z,11.90
2023-10-12T05:36:30.445Z,14.88
2023-10-12T05:39:13.402Z,16.25
2023-10-12T05:41:41.101Z,16.27
2023-10-12T05:44:14.782Z,15.50
2023-10-12T05:46:42.788Z,11.93
2023-10-12T05:49:19.078Z,16.10
2023-10-12T05:51:46.895Z,21.75
2023-10-12T05:54:21.128Z,15.95
2023-10-12T05:56:53.599Z,17.08
2023-10-12T05:59:21.368Z,15.30
2023-10-12T06:01:52.616Z,14.45
2023-10-12T06:04:23.982Z,20.50
2023-10-12T06:06:53.452Z,14.73
2023-10-12T06:09:26.160Z,17.08
2023-10-12T06:11:55.413Z,17.33
2023-10-12T06:14:23.754Z,18.85
2023-10-12T06:16:56.839Z,9.57
2023-10-12T06:19:27.700Z,16.30
2023-10-12T06:22:00.803Z,13.65
2023-10-12T06:24:41.333Z,21.13
2023-10-12T06:27:20.556Z,21.02
2023-10-12T06:29:48.306Z,18.10
2023-10-12T06:32:18.535Z,15.27
2023-10-12T06:34:46.224Z,20.02
2023-10-12T06:37:33.565Z,17.08
2023-10-12T06:40:27.013Z,14.57
2023-10-12T06:43:14.808Z,18.80
2023-10-12T06:45:50.854Z,24.73
2023-10-12T06:48:31.231Z,19.65
2023-10-12T06:51:03.784Z,20.60
2023-10-12T06:53:37.726Z,16.63
2023-10-12T06:56:21.313Z,16.95
2023-10-12T06:59:10.822Z,16.70
2023-10-12T07:02:04.979Z,14.40
2023-10-12T07:04:42.620Z,19.73
2023-10-12T07:07:12.562Z,16.90
2023-10-12T07:09:47.706Z,21.27
2023-10-12T07:12:15.901Z,20.17
2023-10-12T07:14:54.581Z,16.90
2023-10-12T07:17:32.655Z,26.45
2023-10-12T07:20:00.834Z,15.85
2023-10-12T07:22:28.050Z,15.18
2023-10-12T07:24:55.851Z,14.50
2023-10-12T07:27:23.900Z,14.60
2023-10-12T07:30:23.284Z,21.38
2023-10-12T07:32:56.749Z,16.08
2023-10-12T07:35:36.247Z,14.38
2023-10-12T07:38:28.165Z,13.68
2023-10-12T07:41:00.521Z,17.92
2023-10-12T07:43:27.806Z,15.77
2023-10-12T07:45:55.731Z,22.10
2023-10-12T07:48:43.079Z,15.23
2023-10-12T07:51:39.812Z,16.50
2023-10-12T07:54:27.208Z,14.00
2023-10-12T07:56:54.868Z,21.67
2023-10-12T07:59:24.335Z,15.23
2023-10-12T08:01:51.887Z,15.88
2023-10-12T08:04:32.787Z,16.73
2023-10-12T08:07:08.139Z,17.35
2023-10-12T08:09:48.604Z,19.50
2023-10-12T08:12:25.442Z,23.38
2023-10-12T08:15:13.153Z,21.20
2023-10-12T08:17:47.036Z,19.92
2023-10-12T08:20:34.568Z,19.13
2023-10-12T08:23:03.712Z,13.38
2023-10-12T08:25:39.304Z,19.15
2023-10-12T08:28:20.105Z,14.90
2023-10-12T08:30:58.771Z,15.70
2023-10-12T08:33:44.950Z,16.08
2023-10-12T08:36:18.453Z,18.58
2023-10-12T08:38:55.316Z,20.33
2023-10-12T08:41:37.442Z,13.18
2023-10-12T08:44:06.252Z,14.75
2023-10-12T08:46:43.122Z,16.67
2023-10-12T08:49:49.244Z,18.27
2023-10-12T08:52:19.999Z,16.33
2023-10-12T08:54:54.796Z,14.60
2023-10-12T08:57:39.611Z,17.23
2023-10-12T09:00:26.588Z,16.55
2023-10-12T09:03:21.043Z,16.25
2023-10-12T09:05:55.963Z,15.07
2023-10-12T09:08:24.187Z,17.63
2023-10-12T09:11:04.212Z,20.40
2023-10-12T09:13:35.392Z,17.67
2023-10-12T09:16:13.133Z,15.90
2023-10-12T09:19:00.290Z,15.68
2023-10-12T09:21:40.426Z,20.30
2023-10-12T09:24:16.132Z,17.65
2023-10-12T09:26:50.844Z,18.63
2023-10-12T09:29:25.165Z,17.00
2023-10-12T09:32:14.132Z,17.35
2023-10-12T09:34:45.445Z,20.77
2023-10-12T09:37:21.682Z,20.55
2023-10-12T09:39:49.577Z,21.65
2023-10-12T09:42:23.762Z,30.17
2023-10-12T09:45:25.443Z,22.17
2023-10-12T09:48:06.870Z,10.80
2023-10-12T09:50:37.754Z,6.57
2023-10-12T09:53:23.530Z,3.90
2023-10-12T09:56:13.243Z,4.75
2023-10-12T09:58:54.679Z,8.15
2023-10-12T10:01:45.160Z,5.57
2023-10-12T10:04:38.736Z,8.35
2023-10-12T10:07:26.998Z,16.25
2023-10-12T10:10:02.607Z,10.93
2023-10-12T10:12:31.985Z,9.70
2023-10-12T10:15:01.721Z,10.15
2023-10-12T10:17:37.802Z,9.23
2023-10-12T10:20:24.479Z,7.50
2023-10-12T10:22:58.292Z,10.15
2023-10-12T10:25:29.614Z,9.05
2023-10-12T10:27:57.958Z,9.63
2023-10-12T10:30:26.724Z,7.60
2023-10-12T10:33:21.876Z,10.18
2023-10-12T10:35:55.288Z,11.70
2023-10-12T10:38:22.594Z,14.35
2023-10-12T10:40:50.208Z,6.40
2023-10-12T10:43:17.853Z,8.30
2023-10-12T10:45:58.328Z,13.40
2023-10-12T10:50:56.273Z,11.38
2023-10-12T10:53:32.151Z,7.38
2023-10-12T10:56:01.369Z,10.55
2023-10-12T10:58:30.813Z,9.93
2023-10-12T11:00:58.393Z,10.85
2023-10-12T11:03:27.776Z,5.47
2023-10-12T11:05:55.342Z,9.65
2023-10-12T11:08:27.957Z,12.30
2023-10-12T11:11:11.221Z,9.07
2023-10-12T11:13:41.805Z,8.77
2023-10-12T11:16:27.722Z,7.53
2023-10-12T11:18:56.051Z,12.55
2023-10-12T11:21:23.628Z,8.63
2023-10-12T11:23:52.319Z,7.88
2023-10-12T11:26:22.700Z,11.65
2023-10-12T11:29:03.939Z,19.67
2023-10-12T11:31:34.856Z,17.15
2023-10-12T11:34:08.734Z,16.40
2023-10-12T11:36:39.338Z,12.43
2023-10-12T11:39:18.972Z,11.70
2023-10-12T11:42:05.346Z,21.25
2023-10-12T11:44:38.024Z,7.53
2023-10-12T11:47:08.627Z,11.05
2023-10-12T11:50:01.361Z,10.02
2023-10-12T11:52:35.829Z,7.80
2023-10-12T11:55:19.886Z,12.10
2023-10-12T11:57:55.811Z,10.27
2023-10-12T12:00:30.920Z,8.98
2023-10-12T12:03:04.307Z,8.80
2023-10-12T12:05:32.409Z,10.25
2023-10-12T12:08:00.583Z,5.05
2023-10-12T12:10:45.483Z,10.07
2023-10-12T12:13:13.595Z,7.93
2023-10-12T12:15:44.477Z,9.20
2023-10-12T12:18:30.705Z,13.02
2023-10-12T12:20:58.375Z,8.75
2023-10-12T12:23:30.658Z,10.43
2023-10-12T12:26:03.456Z,6.55
2023-10-12T12:28:34.479Z,11.40
2023-10-12T12:31:06.213Z,12.13
2023-10-12T12:33:33.490Z,10.32
2023-10-12T12:36:13.985Z,13.15
2023-10-12T12:38:41.909Z,11.77
2023-10-12T12:41:23.559Z,12.85
2023-10-12T12:43:51.193Z,13.93
2023-10-12T12:46:19.101Z,8.07
2023-10-12T12:48:47.035Z,11.00
2023-10-12T12:51:16.520Z,12.75
2023-10-12T12:53:47.527Z,11.63
2023-10-12T12:56:18.693Z,7.90
2023-10-12T12:58:49.347Z,13.73
2023-10-12T13:01:20.171Z,9.30
2023-10-12T13:03:47.992Z,7.55
2023-10-12T13:06:18.234Z,9.38
2023-10-12T13:08:45.487Z,11.20
2023-10-12T13:11:13.445Z,9.10
2023-10-12T13:13:41.052Z,11.43
2023-10-12T13:16:14.054Z,7.18
2023-10-12T13:18:47.428Z,9.98
2023-10-12T13:21:16.063Z,10.00
2023-10-12T13:23:46.531Z,12.10
2023-10-12T13:26:19.333Z,9.98
2023-10-12T13:28:46.730Z,8.07
2023-10-12T13:31:14.279Z,12.00
2023-10-12T13:33:45.308Z,8.60
2023-10-12T13:36:12.629Z,11.23
2023-10-12T13:38:40.745Z,11.45
2023-10-12T13:41:12.449Z,13.05
2023-10-12T13:43:40.237Z,16.23
2023-10-12T13:46:12.012Z,15.82
2023-10-12T13:48:39.919Z,10.68
2023-10-12T13:51:14.926Z,11.25
2023-10-12T13:53:43.035Z,7.47
2023-10-12T13:56:11.305Z,11.35
2023-10-12T13:58:39.285Z,8.10
2023-10-12T14:01:15.487Z,8.13
2023-10-12T14:03:46.830Z,7.78
2023-10-12T14:06:14.720Z,12.50
2023-10-12T14:08:42.351Z,11.63
2023-10-12T14:11:16.459Z,10.52
2023-10-12T14:13:44.054Z,11.13
2023-10-12T14:16:11.931Z,8.63
2023-10-12T14:18:39.838Z,10.93
2023-10-12T14:21:12.311Z,11.52
2023-10-12T14:23:47.025Z,12.45
2023-10-12T14:26:23.447Z,15.13
2023-10-12T14:28:52.355Z,11.10
2023-10-12T14:31:22.255Z,11.23
2023-10-12T14:33:49.804Z,16.27
2023-10-12T14:36:18.232Z,13.32
2023-10-12T14:38:46.560Z,8.52
2023-10-12T14:41:18.891Z,8.23
2023-10-12T14:43:50.239Z,12.50
2023-10-12T14:46:21.180Z,11.27
2023-10-12T14:48:52.819Z,13.25
2023-10-12T14:51:22.477Z,9.88
2023-10-12T14:53:51.872Z,8.93
2023-10-12T14:56:28.651Z,11.48
2023-10-12T14:58:57.481Z,13.90
2023-10-12T15:01:29.651Z,8.63
2023-10-12T15:03:57.695Z,12.75
2023-10-12T15:06:25.182Z,7.72
2023-10-12T15:08:54.555Z,14.60
2023-10-12T15:11:22.025Z,10.35
2023-10-12T15:13:50.872Z,10.13
2023-10-12T15:16:20.222Z,12.45
2023-10-12T15:18:47.792Z,11.38
2023-10-12T15:23:46.631Z,16.33
2023-10-12T15:26:15.186Z,8.48
2023-10-12T15:28:48.718Z,12.90
2023-10-12T15:31:17.984Z,13.52
2023-10-12T15:33:45.541Z,20.05
2023-10-12T15:36:16.892Z,14.15
2023-10-12T15:38:44.631Z,12.63
2023-10-12T15:41:12.070Z,12.95
2023-10-12T15:43:39.465Z,12.88
2023-10-12T15:46:12.865Z,12.60
2023-10-12T15:48:43.801Z,15.15
2023-10-12T15:51:18.063Z,14.63
2023-10-12T15:53:45.318Z,15.02
2023-10-12T15:56:12.620Z,12.65
2023-10-12T15:58:41.335Z,12.23
2023-10-12T16:01:09.544Z,14.98
2023-10-12T16:03:37.088Z,13.77
2023-10-12T16:06:05.308Z,13.90
2023-10-12T16:08:32.931Z,12.77
2023-10-12T16:11:00.117Z,13.25
2023-10-12T16:13:27.408Z,12.68
2023-10-12T16:15:56.463Z,15.48
2023-10-12T16:18:24.008Z,14.27
2023-10-12T16:20:51.805Z,17.63
2023-10-12T16:23:21.155Z,11.85
2023-10-12T16:25:52.430Z,11.55
2023-10-12T16:28:19.720Z,12.82
2023-10-12T16:30:48.254Z,12.05
2023-10-12T16:33:16.803Z,14.45
2023-10-12T16:35:46.206Z,12.73
2023-10-12T16:38:13.404Z,9.48
2023-10-12T16:40:41.006Z,15.40
2023-10-12T16:43:10.065Z,16.73
2023-10-12T16:45:37.811Z,11.15
2023-10-12T16:48:08.194Z,15.30
2023-10-12T16:50:35.499Z,11.50
2023-10-12T16:53:02.670Z,15.10
2023-10-12T16:55:30.064Z,16.92
2023-10-12T16:57:57.348Z,20.55
2023-10-12T17:00:25.686Z,24.08
2023-10-12T17:02:53.197Z,16.80
2023-10-12T17:05:24.562Z,17.77
2023-10-12T17:07:53.481Z,18.70
2023-10-12T17:10:25.226Z,17.38
2023-10-12T17:12:53.726Z,17.55
2023-10-12T17:15:21.486Z,17.02
2023-10-12T17:17:49.007Z,18.63
2023-10-12T17:20:17.326Z,15.25
2023-10-12T17:22:45.054Z,15.20
2023-10-12T17:25:14.144Z,15.52
2023-10-12T17:27:42.252Z,19.85
2023-10-12T17:30:11.667Z,18.58
2023-10-12T17:32:39.933Z,15.55
2023-10-12T17:35:13.782Z,16.77
2023-10-12T17:37:41.580Z,17.15
2023-10-12T17:40:10.370Z,19.52
2023-10-12T17:42:38.040Z,22.15
2023-10-12T17:45:10.924Z,16.30
2023-10-12T17:47:42.059Z,14.75
2023-10-12T17:50:16.316Z,21.20
2023-10-12T17:52:44.094Z,32.90
2023-10-12T17:55:12.302Z,44.05
2023-10-12T17:57:39.549Z,55.38
2023-10-12T18:00:11.224Z,64.53
2023-10-12T18:02:43.325Z,63.78
2023-10-12T18:05:13.074Z,84.35
2023-10-12T18:07:41.820Z,133.93
2023-10-12T18:10:09.401Z,102.40
2023-10-12T18:12:39.964Z,97.28
2023-10-12T18:15:10.063Z,76.13
2023-10-12T18:17:37.505Z,65.88
2023-10-12T18:20:06.533Z,89.10
2023-10-12T18:22:34.320Z,107.53
2023-10-12T18:25:02.134Z,100.35
2023-10-12T18:27:29.418Z,95.25
2023-10-12T18:29:56.633Z,87.38
2023-10-12T18:32:24.209Z,86.20
2023-10-12T18:34:53.046Z,77.93
2023-10-12T18:37:20.954Z,68.45
2023-10-12T18:39:48.411Z,63.97
2023-10-12T18:42:16.032Z,55.53
2023-10-12T18:44:43.416Z,59.05
2023-10-12T18:47:10.610Z,55.97
2023-10-12T18:49:37.939Z,52.08
2023-10-12T18:52:05.362Z,50.60
2023-10-12T18:54:32.681Z,52.50
2023-10-12T18:57:00.135Z,50.45
2023-10-12T18:59:27.377Z,49.55
2023-10-12T19:01:55.943Z,61.63
2023-10-12T19:04:23.902Z,58.38
2023-10-12T19:06:52.148Z,60.05
2023-10-12T19:09:19.495Z,59.15
2023-10-12T19:11:46.984Z,71.47
2023-10-12T19:14:14.334Z,69.68
2023-10-12T19:16:41.654Z,66.75
2023-10-12T19:19:09.180Z,55.65
2023-10-12T19:21:39.238Z,53.08
2023-10-12T19:24:11.884Z,52.92
2023-10-12T19:26:40.493Z,62.67
2023-10-12T19:29:07.898Z,75.53
2023-10-12T19:31:38.694Z,86.03
2023-10-12T19:34:06.278Z,79.47
2023-10-12T19:36:33.564Z,74.85
2023-10-12T19:39:00.719Z,74.88
2023-10-12T19:41:28.023Z,80.83
2023-10-12T19:43:57.815Z,78.82
2023-10-12T19:46:26.105Z,72.72
2023-10-12T19:48:53.648Z,70.17
2023-10-12T19:51:22.666Z,77.77
2023-10-12T19:53:51.694Z,65.53
2023-10-12T19:56:20.803Z,67.63
2023-10-12T19:58:49.771Z,68.53
2023-10-12T20:01:21.519Z,85.57
2023-10-12T20:03:52.600Z,90.97
2023-10-12T20:06:20.901Z,95.90
2023-10-12T20:08:49.390Z,87.27
2023-10-12T20:11:17.903Z,95.90
2023-10-12T20:13:50.154Z,101.40
2023-10-12T20:16:25.212Z,99.33
2023-10-12T20:18:52.783Z,97.10
2023-10-12T20:21:21.453Z,88.13
2023-10-12T20:23:49.774Z,86.33
2023-10-12T20:26:24.408Z,83.37
2023-10-12T20:28:51.885Z,75.10
2023-10-12T20:31:19.146Z,72.60
2023-10-12T20:33:47.450Z,74.60
2023-10-12T20:36:14.719Z,78.60
2023-10-12T20:38:42.144Z,69.20
2023-10-12T20:41:09.475Z,75.87
2023-10-12T20:43:36.985Z,69.70
2023-10-12T20:46:11.280Z,74.23
2023-10-12T20:48:39.302Z,77.83
2023-10-12T20:51:07.240Z,84.07
2023-10-12T20:53:35.101Z,88.03
2023-10-12T20:56:10.321Z,89.77
2023-10-12T20:58:45.289Z,88.70
2023-10-12T21:01:21.874Z,73.03
2023-10-12T21:03:56.244Z,74.97
2023-10-12T21:06:32.219Z,86.47
2023-10-12T21:09:14.374Z,80.37
2023-10-12T21:11:49.809Z,72.93
2023-10-12T21:14:27.414Z,70.07
2023-10-12T21:16:59.020Z,59.67
2023-10-12T21:19:27.059Z,56.07
2023-10-12T21:22:08.605Z,51.37
2023-10-12T21:24:39.331Z,56.33
2023-10-12T21:27:15.440Z,58.73
2023-10-12T21:29:50.525Z,60.30
2023-10-12T21:32:28.236Z,59.80
2023-10-12T21:34:55.886Z,61.53
2023-10-12T21:37:23.304Z,55.97
2023-10-12T21:39:51.501Z,50.40
2023-10-12T21:42:20.296Z,54.37
2023-10-12T21:44:47.751Z,45.33
2023-10-12T21:47:15.434Z,45.43
2023-10-12T21:49:45.003Z,48.23
2023-10-12T21:52:13.636Z,46.10
2023-10-12T21:54:41.670Z,48.43
2023-10-12T21:57:11.259Z,44.30
2023-10-12T21:59:39.316Z,44.23
2023-10-12T22:04:38.010Z,54.97
2023-10-12T22:07:08.281Z,49.37
2023-10-12T22:09:58.757Z,55.83
2023-10-12T22:12:28.824Z,82.47
2023-10-12T22:15:13.221Z,97.60
2023-10-12T22:17:48.083Z,77.30
2023-10-12T22:20:17.239Z,65.67
2023-10-12T22:22:44.549Z,55.23
2023-10-12T22:25:15.539Z,62.43
2023-10-12T22:27:45.611Z,67.97
2023-10-12T22:30:17.360Z,56.03
2023-10-12T22:32:44.872Z,59.90
2023-10-12T22:35:12.152Z,60.63
2023-10-12T22:37:40.367Z,54.43
2023-10-12T22:40:18.109Z,64.27
2023-10-12T22:42:45.923Z,56.73
2023-10-12T22:45:16.828Z,53.30
2023-10-12T22:47:47.734Z,55.17
2023-10-12T22:50:17.487Z,45.70
2023-10-12T22:52:47.077Z,51.40
2023-10-12T22:55:16.816Z,58.83
2023-10-12T22:57:45.583Z,56.67
2023-10-12T23:00:22.763Z,59.87
2023-10-12T23:02:50.534Z,54.27
2023-10-12T23:05:17.998Z,58.97
2023-10-12T23:07:45.314Z,55.90
2023-10-12T23:10:16.037Z,52.07
2023-10-12T23:12:43.915Z,54.57
2023-10-12T23:15:14.611Z,47.40
2023-10-12T23:17:57.001Z,50.00
2023-10-12T23:20:41.725Z,57.47
2023-10-12T23:23:13.304Z,47.37
2023-10-12T23:25:45.132Z,50.20
2023-10-12T23:28:19.188Z,42.43
2023-10-12T23:30:47.169Z,39.63
2023-10-12T23:33:17.220Z,29.73
2023-10-12T23:35:48.281Z,27.20
2023-10-12T23:38:35.074Z,31.60
2023-10-12T23:41:14.721Z,33.87
2023-10-12T23:43:53.951Z,30.53
2023-10-12T23:46:25.710Z,40.50
2023-10-12T23:49:06.520Z,44.50
2023-10-12T23:51:35.475Z,30.60
2023-10-12T23:54:07.619Z,36.87
2023-10-12T23:56:41.282Z,29.27
2023-10-12T23:59:09.320Z,32.93
